createdAt,value
2023-01-30T00:01:56.387Z,1.26
2023-01-30T00:04:24.420Z,1.14
2023-01-30T00:06:52.070Z,1.00
2023-01-30T00:09:21.254Z,0.98
2023-01-30T00:11:48.996Z,0.97
2023-01-30T00:14:16.816Z,0.92
2023-01-30T00:16:45.072Z,1.06
2023-01-30T00:19:12.854Z,0.96
2023-01-30T00:21:41.939Z,1.04
2023-01-30T00:24:10.239Z,0.92
2023-01-30T00:26:43.093Z,0.88
2023-01-30T00:29:14.063Z,0.71
2023-01-30T00:31:48.001Z,0.73
2023-01-30T00:34:21.019Z,0.75
2023-01-30T00:37:07.152Z,0.74
2023-01-30T00:39:41.943Z,0.69
2023-01-30T00:42:30.965Z,0.58
2023-01-30T00:45:19.634Z,0.53
2023-01-30T00:47:53.215Z,0.58
2023-01-30T00:50:21.408Z,0.72
2023-01-30T00:52:49.121Z,0.97
2023-01-30T00:55:18.858Z,1.10
2023-01-30T00:57:48.332Z,1.26
2023-01-30T01:00:17.929Z,1.45
2023-01-30T01:02:45.663Z,1.15
2023-01-30T01:05:13.557Z,1.05
2023-01-30T01:07:41.300Z,1.18
2023-01-30T01:10:16.257Z,1.31
2023-01-30T01:12:44.654Z,1.30
2023-01-30T01:15:15.234Z,1.18
2023-01-30T01:17:43.607Z,1.06
2023-01-30T01:20:12.034Z,1.20
2023-01-30T01:22:39.747Z,1.29
2023-01-30T01:25:09.383Z,1.03
2023-01-30T01:27:37.421Z,0.87
2023-01-30T01:30:09.015Z,0.77
2023-01-30T01:32:39.103Z,0.83
2023-01-30T01:35:07.689Z,0.76
2023-01-30T01:37:35.932Z,0.72
2023-01-30T01:40:21.759Z,0.73
2023-01-30T01:42:50.994Z,0.92
2023-01-30T01:45:21.984Z,1.00
2023-01-30T01:48:01.425Z,1.11
2023-01-30T01:50:39.937Z,1.08
2023-01-30T01:53:08.972Z,1.01
2023-01-30T01:55:38.790Z,0.91
2023-01-30T01:58:12.176Z,1.02
2023-01-30T02:00:40.397Z,1.10
2023-01-30T02:03:15.343Z,1.08
2023-01-30T02:05:51.764Z,1.26
2023-01-30T02:08:23.814Z,1.01
2023-01-30T02:10:58.222Z,1.17
2023-01-30T02:13:28.201Z,1.01
2023-01-30T02:15:59.236Z,1.03
2023-01-30T02:18:29.355Z,0.97
2023-01-30T02:21:38.539Z,0.98
2023-01-30T02:24:36.715Z,1.04
2023-01-30T02:27:24.892Z,1.17
2023-01-30T02:30:38.434Z,1.17
2023-01-30T02:33:17.212Z,1.15
2023-01-30T02:35:54.457Z,1.35
2023-01-30T02:38:35.950Z,1.33
2023-01-30T02:41:14.246Z,1.50
2023-01-30T02:43:50.626Z,1.59
2023-01-30T02:46:24.087Z,1.39
2023-01-30T02:48:58.398Z,1.19
2023-01-30T02:51:31.679Z,1.17
2023-01-30T02:54:01.040Z,1.16
2023-01-30T02:56:29.370Z,1.27
2023-01-30T02:59:03.271Z,1.30
2023-01-30T03:01:50.644Z,1.15
2023-01-30T03:04:33.953Z,1.24
2023-01-30T03:07:15.231Z,1.45
2023-01-30T03:09:52.386Z,1.49
2023-01-30T03:12:32.118Z,1.51
2023-01-30T03:15:04.284Z,1.35
2023-01-30T03:17:33.940Z,1.44
2023-01-30T03:20:06.284Z,1.32
2023-01-30T03:22:33.930Z,1.41
2023-01-30T03:25:02.976Z,1.45
2023-01-30T03:27:31.628Z,1.31
2023-01-30T03:29:59.387Z,1.44
2023-01-30T03:32:27.201Z,1.28
2023-01-30T03:34:57.218Z,1.28
2023-01-30T03:37:26.833Z,1.35
2023-01-30T03:39:56.006Z,1.18
2023-01-30T03:42:23.946Z,1.27
2023-01-30T03:44:52.651Z,1.19
2023-01-30T03:47:20.377Z,1.16
2023-01-30T03:49:50.461Z,1.21
2023-01-30T03:52:18.180Z,1.20
2023-01-30T03:54:47.519Z,1.15
2023-01-30T03:57:16.335Z,1.35
2023-01-30T03:59:44.664Z,1.28
2023-01-30T04:02:15.423Z,1.25
2023-01-30T04:04:45.769Z,1.26
2023-01-30T04:07:14.270Z,1.73
2023-01-30T04:09:43.059Z,1.58
2023-01-30T04:12:13.872Z,1.58
2023-01-30T04:14:51.073Z,1.61
2023-01-30T04:17:29.567Z,1.59
2023-01-30T04:20:16.150Z,1.50
2023-01-30T04:22:50.221Z,1.40
2023-01-30T04:25:18.667Z,1.36
2023-01-30T04:27:49.316Z,1.46
2023-01-30T04:30:21.705Z,1.61
2023-01-30T04:32:55.829Z,1.60
2023-01-30T04:35:23.979Z,1.49
2023-01-30T04:37:52.370Z,1.62
2023-01-30T04:40:21.544Z,1.79
2023-01-30T04:42:50.705Z,1.53
2023-01-30T04:45:48.017Z,1.54
2023-01-30T04:48:16.748Z,1.75
2023-01-30T04:50:48.507Z,1.57
2023-01-30T04:53:16.737Z,1.48
2023-01-30T04:55:44.964Z,1.60
2023-01-30T04:58:14.198Z,1.49
2023-01-30T05:00:41.987Z,1.51
2023-01-30T05:03:09.766Z,1.37
2023-01-30T05:05:37.684Z,1.43
2023-01-30T05:08:09.966Z,1.18
2023-01-30T05:10:37.684Z,1.20
2023-01-30T05:13:06.454Z,1.13
2023-01-30T05:15:35.753Z,1.18
2023-01-30T05:18:03.356Z,1.13
2023-01-30T05:20:31.096Z,1.20
2023-01-30T05:22:58.834Z,1.30
2023-01-30T05:25:26.557Z,1.28
2023-01-30T05:27:54.229Z,1.30
2023-01-30T05:30:22.209Z,1.21
2023-01-30T05:32:51.384Z,1.26
2023-01-30T05:35:19.451Z,1.38
2023-01-30T05:37:51.447Z,1.26
2023-01-30T05:40:19.536Z,1.28
2023-01-30T05:42:48.584Z,1.27
2023-01-30T05:45:17.001Z,1.27
2023-01-30T05:47:45.055Z,1.28
2023-01-30T05:50:15.457Z,1.20
2023-01-30T05:52:43.191Z,1.31
2023-01-30T05:55:11.223Z,1.28
2023-01-30T05:57:39.382Z,1.26
2023-01-30T06:00:10.307Z,1.25
2023-01-30T06:02:40.872Z,1.34
2023-01-30T06:05:09.670Z,1.45
2023-01-30T06:07:38.647Z,1.41
2023-01-30T06:10:07.340Z,1.41
2023-01-30T06:12:35.118Z,1.44
2023-01-30T06:15:03.319Z,1.66
2023-01-30T06:17:31.462Z,1.74
2023-01-30T06:19:59.632Z,1.80
2023-01-30T06:22:27.311Z,1.94
2023-01-30T06:24:56.352Z,2.03
2023-01-30T06:27:24.411Z,2.10
2023-01-30T06:29:52.243Z,2.14
2023-01-30T06:32:20.153Z,2.18
2023-01-30T06:34:48.216Z,2.10
2023-01-30T06:37:15.879Z,2.04
2023-01-30T06:39:43.634Z,2.19
2023-01-30T06:42:14.384Z,2.20
2023-01-30T06:44:42.574Z,1.99
2023-01-30T06:47:11.136Z,2.05
2023-01-30T06:49:38.916Z,2.00
2023-01-30T06:52:06.879Z,1.85
2023-01-30T06:54:35.231Z,1.93
2023-01-30T06:57:02.870Z,2.09
2023-01-30T06:59:31.883Z,2.14
2023-01-30T07:02:00.035Z,2.05
2023-01-30T07:04:27.829Z,2.15
2023-01-30T07:06:55.768Z,2.08
2023-01-30T07:09:23.465Z,2.20
2023-01-30T07:11:51.319Z,2.37
2023-01-30T07:14:18.944Z,2.19
2023-01-30T07:16:48.208Z,2.19
2023-01-30T07:19:15.981Z,2.24
2023-01-30T07:21:43.729Z,2.12
2023-01-30T07:24:11.888Z,2.34
2023-01-30T07:26:39.586Z,2.32
2023-01-30T07:29:07.347Z,2.06
2023-01-30T07:31:35.622Z,2.19
2023-01-30T07:34:05.427Z,2.14
2023-01-30T07:36:34.703Z,2.05
2023-01-30T07:39:03.245Z,2.28
2023-01-30T07:41:31.118Z,2.27
2023-01-30T07:43:59.034Z,2.36
2023-01-30T07:46:27.058Z,2.20
2023-01-30T07:48:54.756Z,2.37
2023-01-30T07:51:23.996Z,2.42
2023-01-30T07:53:58.192Z,2.25
2023-01-30T07:56:30.637Z,2.06
2023-01-30T07:58:58.377Z,2.03
2023-01-30T08:01:26.343Z,2.02
2023-01-30T08:03:54.057Z,2.17
2023-01-30T08:06:37.424Z,2.24
2023-01-30T08:09:05.090Z,2.26
2023-01-30T08:11:33.129Z,2.33
2023-01-30T08:14:01.134Z,2.27
2023-01-30T08:16:32.230Z,2.44
2023-01-30T08:19:00.121Z,2.37
2023-01-30T08:21:28.339Z,2.33
2023-01-30T08:24:00.110Z,2.43
2023-01-30T08:26:28.677Z,2.45
2023-01-30T08:28:56.925Z,2.54
2023-01-30T08:31:24.715Z,2.45
2023-01-30T08:33:52.583Z,2.47
2023-01-30T08:36:20.301Z,2.53
2023-01-30T08:38:48.206Z,2.51
2023-01-30T08:41:17.400Z,2.55
2023-01-30T08:43:45.885Z,2.51
2023-01-30T08:46:14.555Z,2.48
2023-01-30T08:48:49.884Z,2.52
2023-01-30T08:51:18.575Z,2.54
2023-01-30T08:53:46.316Z,2.61
2023-01-30T08:56:14.723Z,2.56
2023-01-30T08:58:46.372Z,2.61
2023-01-30T09:01:14.510Z,2.59
2023-01-30T09:03:42.561Z,2.69
2023-01-30T09:06:10.349Z,2.72
2023-01-30T09:08:38.195Z,2.77
2023-01-30T09:11:06.909Z,2.77
2023-01-30T09:13:36.188Z,2.76
2023-01-30T09:16:07.905Z,2.74
2023-01-30T09:18:35.866Z,2.79
2023-01-30T09:21:04.923Z,2.79
2023-01-30T09:23:32.620Z,2.72
2023-01-30T09:26:02.253Z,2.83
2023-01-30T09:28:30.733Z,2.86
2023-01-30T09:30:59.546Z,2.97
2023-01-30T09:33:29.207Z,2.93
2023-01-30T09:35:57.853Z,3.01
2023-01-30T09:38:25.700Z,3.02
2023-01-30T09:41:19.212Z,3.04
2023-01-30T09:44:08.434Z,3.02
2023-01-30T09:46:43.732Z,2.98
2023-01-30T09:49:25.841Z,3.00
2023-01-30T09:52:03.392Z,2.98
2023-01-30T09:54:33.798Z,2.93
2023-01-30T09:57:21.605Z,3.11
2023-01-30T09:59:58.648Z,3.18
2023-01-30T10:02:42.310Z,3.16
2023-01-30T10:05:11.549Z,3.11
2023-01-30T10:07:48.976Z,3.20
2023-01-30T10:10:22.290Z,3.23
2023-01-30T10:12:57.436Z,3.36
2023-01-30T10:15:35.996Z,3.43
2023-01-30T10:18:25.017Z,3.47
2023-01-30T10:21:06.570Z,3.55
2023-01-30T10:23:48.547Z,3.63
2023-01-30T10:26:20.269Z,3.37
2023-01-30T10:29:06.765Z,3.36
2023-01-30T10:31:42.511Z,3.45
2023-01-30T10:34:15.749Z,3.67
2023-01-30T10:36:52.913Z,3.97
2023-01-30T10:39:27.223Z,3.68
2023-01-30T10:42:02.258Z,3.81
2023-01-30T10:44:30.347Z,3.84
2023-01-30T10:47:46.219Z,3.94
2023-01-30T10:50:18.173Z,3.90
2023-01-30T10:52:56.104Z,3.90
2023-01-30T10:55:37.626Z,3.77
2023-01-30T10:58:15.105Z,3.78
2023-01-30T11:00:48.115Z,3.94
2023-01-30T11:03:25.259Z,3.90
2023-01-30T11:05:55.286Z,4.02
2023-01-30T11:08:26.907Z,3.83
2023-01-30T11:10:56.637Z,3.72
2023-01-30T11:13:30.354Z,3.72
2023-01-30T11:16:01.057Z,3.62
2023-01-30T11:21:27.109Z,3.60
2023-01-30T11:24:06.896Z,3.72
2023-01-30T11:26:46.713Z,3.72
2023-01-30T11:29:27.707Z,3.73
2023-01-30T11:31:55.756Z,3.99
2023-01-30T11:34:25.506Z,4.31
2023-01-30T11:36:54.284Z,4.35
2023-01-30T11:39:30.197Z,4.58
2023-01-30T11:42:03.845Z,4.91
2023-01-30T11:44:35.276Z,5.17
2023-01-30T11:47:08.843Z,5.04
2023-01-30T11:49:47.057Z,4.64
2023-01-30T11:52:19.508Z,4.48
2023-01-30T11:54:49.612Z,4.56
2023-01-30T11:57:19.960Z,4.59
2023-01-30T11:59:50.791Z,4.50
2023-01-30T12:02:24.593Z,4.42
2023-01-30T12:04:56.289Z,4.79
2023-01-30T12:07:27.475Z,4.87
2023-01-30T12:09:58.400Z,4.92
2023-01-30T12:12:30.530Z,5.02
2023-01-30T12:15:12.385Z,5.09
2023-01-30T12:17:45.649Z,4.91
2023-01-30T12:20:19.308Z,4.97
2023-01-30T12:22:53.148Z,5.31
2023-01-30T12:25:27.702Z,5.82
2023-01-30T12:28:00.903Z,5.50
2023-01-30T12:33:07.855Z,5.32
2023-01-30T12:35:54.239Z,5.49
2023-01-30T12:38:34.357Z,5.61
2023-01-30T12:41:16.799Z,5.44
2023-01-30T12:44:00.170Z,5.04
2023-01-30T12:46:44.318Z,5.16
2023-01-30T12:49:49.113Z,5.47
2023-01-30T12:52:51.259Z,5.77
2023-01-30T12:55:27.993Z,5.57
2023-01-30T12:58:02.086Z,5.57
2023-01-30T13:00:44.552Z,5.28
2023-01-30T13:03:24.613Z,5.20
2023-01-30T13:06:04.632Z,4.95
2023-01-30T13:08:43.611Z,5.02
2023-01-30T13:11:29.150Z,5.05
2023-01-30T13:14:08.490Z,4.68
2023-01-30T13:16:44.389Z,4.71
2023-01-30T13:19:21.099Z,4.46
2023-01-30T13:21:57.811Z,4.43
2023-01-30T13:24:36.375Z,4.27
2023-01-30T13:27:18.437Z,4.35
2023-01-30T13:29:49.822Z,4.57
2023-01-30T13:32:28.359Z,4.44
2023-01-30T13:34:57.825Z,4.42
2023-01-30T13:37:25.748Z,4.60
2023-01-30T13:39:58.516Z,4.85
2023-01-30T13:42:34.547Z,5.30
2023-01-30T13:45:06.354Z,5.50
2023-01-30T13:47:49.220Z,5.42
2023-01-30T13:50:28.372Z,5.24
2023-01-30T13:53:00.557Z,5.15
2023-01-30T13:55:36.496Z,5.03
2023-01-30T13:58:13.847Z,4.96
2023-01-30T14:00:54.631Z,5.23
2023-01-30T14:03:31.975Z,5.12
2023-01-30T14:06:24.299Z,5.06
2023-01-30T14:08:59.126Z,5.09
2023-01-30T14:11:48.253Z,5.01
2023-01-30T14:14:28.394Z,5.00
2023-01-30T14:17:08.764Z,4.90
2023-01-30T14:19:43.678Z,4.86
2023-01-30T14:22:24.676Z,4.83
2023-01-30T14:25:41.802Z,4.78
2023-01-30T14:28:51.739Z,4.73
2023-01-30T14:31:55.886Z,4.71
2023-01-30T14:34:44.267Z,4.82
2023-01-30T14:37:50.142Z,4.68
2023-01-30T14:40:46.616Z,4.80
2023-01-30T14:43:53.328Z,4.73
2023-01-30T14:46:54.889Z,4.87
2023-01-30T14:49:30.953Z,4.97
2023-01-30T14:52:01.189Z,4.91
2023-01-30T14:54:41.889Z,4.93
2023-01-30T14:57:20.488Z,5.00
2023-01-30T15:00:12.219Z,5.02
2023-01-30T15:02:44.728Z,4.85
2023-01-30T15:05:16.715Z,4.81
2023-01-30T15:07:49.661Z,4.78
2023-01-30T15:10:31.261Z,4.77
2023-01-30T15:13:22.506Z,4.94
2023-01-30T15:16:01.636Z,4.90
2023-01-30T15:18:48.936Z,4.86
2023-01-30T15:21:37.143Z,4.99
2023-01-30T15:24:26.303Z,5.05
2023-01-30T15:27:08.581Z,4.89
2023-01-30T15:30:04.065Z,4.95
2023-01-30T15:32:33.823Z,4.77
2023-01-30T15:35:04.409Z,4.77
2023-01-30T15:37:35.314Z,4.67
2023-01-30T15:40:29.718Z,4.90
2023-01-30T15:43:17.999Z,4.88
2023-01-30T15:45:59.803Z,4.79
2023-01-30T15:48:54.634Z,4.68
2023-01-30T15:51:28.088Z,4.65
2023-01-30T15:53:57.544Z,4.57
2023-01-30T15:56:30.944Z,4.52
2023-01-30T15:59:01.637Z,4.53
2023-01-30T16:01:29.741Z,4.49
2023-01-30T16:04:00.377Z,4.48
2023-01-30T16:06:33.651Z,4.57
2023-01-30T16:09:03.776Z,4.45
2023-01-30T16:11:41.365Z,4.39
2023-01-30T16:14:13.793Z,4.34
2023-01-30T16:16:47.062Z,4.33
2023-01-30T16:19:22.652Z,4.22
2023-01-30T16:21:50.637Z,4.17
2023-01-30T16:24:22.150Z,4.18
2023-01-30T16:26:55.388Z,4.22
2023-01-30T16:29:25.579Z,4.05
2023-01-30T16:31:55.692Z,4.01
2023-01-30T16:34:30.059Z,3.94
2023-01-30T16:37:03.619Z,3.95
2023-01-30T16:39:33.876Z,3.90
2023-01-30T16:42:05.657Z,3.85
2023-01-30T16:44:34.106Z,3.75
2023-01-30T16:47:05.327Z,3.53
2023-01-30T16:49:44.294Z,3.36
2023-01-30T16:52:19.953Z,3.29
2023-01-30T16:54:50.319Z,3.32
2023-01-30T16:57:36.576Z,3.25
2023-01-30T17:00:09.965Z,3.15
2023-01-30T17:02:40.758Z,3.15
2023-01-30T17:05:18.154Z,3.24
2023-01-30T17:07:46.637Z,3.42
2023-01-30T17:10:55.091Z,3.52
2023-01-30T17:13:36.554Z,3.55
2023-01-30T17:16:23.900Z,3.53
2023-01-30T17:18:53.389Z,3.49
2023-01-30T17:21:23.020Z,3.49
2023-01-30T17:23:53.953Z,3.47
2023-01-30T17:26:22.231Z,3.60
2023-01-30T17:28:51.794Z,3.50
2023-01-30T17:31:22.006Z,3.60
2023-01-30T17:33:49.832Z,3.56
2023-01-30T17:36:23.998Z,3.61
2023-01-30T17:38:52.552Z,3.59
2023-01-30T17:41:22.100Z,3.56
2023-01-30T17:43:52.493Z,3.60
2023-01-30T17:46:24.350Z,3.72
2023-01-30T17:48:52.371Z,3.74
2023-01-30T17:51:20.421Z,3.77
2023-01-30T17:53:48.104Z,3.75
2023-01-30T17:56:22.875Z,3.85
2023-01-30T17:58:52.150Z,3.96
2023-01-30T18:01:20.108Z,3.98
2023-01-30T18:03:47.888Z,4.03
2023-01-30T18:06:17.465Z,4.02
2023-01-30T18:08:45.582Z,3.95
2023-01-30T18:11:14.826Z,3.88
2023-01-30T18:13:47.600Z,3.86
2023-01-30T18:16:23.013Z,4.04
2023-01-30T18:18:51.575Z,4.12
2023-01-30T18:21:22.019Z,4.16
2023-01-30T18:23:49.945Z,4.24
2023-01-30T18:26:18.320Z,4.31
2023-01-30T18:28:46.348Z,4.27
2023-01-30T18:31:14.485Z,4.31
2023-01-30T18:33:45.516Z,4.36
2023-01-30T18:36:15.179Z,4.38
2023-01-30T18:38:43.760Z,4.36
2023-01-30T18:41:14.188Z,4.30
2023-01-30T18:43:42.536Z,4.39
2023-01-30T18:46:12.372Z,4.28
2023-01-30T18:48:40.048Z,4.23
2023-01-30T18:51:11.734Z,4.24
2023-01-30T18:53:41.035Z,4.23
2023-01-30T18:56:09.221Z,4.22
2023-01-30T18:58:36.898Z,4.20
2023-01-30T19:01:10.431Z,4.04
2023-01-30T19:03:38.942Z,4.08
2023-01-30T19:06:11.648Z,4.00
2023-01-30T19:08:39.763Z,4.07
2023-01-30T19:11:22.366Z,4.13
2023-01-30T19:13:50.294Z,4.10
2023-01-30T19:16:19.013Z,4.10
2023-01-30T19:18:47.108Z,4.21
2023-01-30T19:21:16.181Z,4.19
2023-01-30T19:23:44.055Z,4.15
2023-01-30T19:26:12.006Z,4.22
2023-01-30T19:28:41.751Z,4.17
2023-01-30T19:31:10.708Z,4.21
2023-01-30T19:33:38.785Z,4.24
2023-01-30T19:36:10.808Z,4.27
2023-01-30T19:38:40.412Z,4.39
2023-01-30T19:41:12.582Z,4.32
2023-01-30T19:43:41.048Z,4.35
2023-01-30T19:46:11.279Z,4.34
2023-01-30T19:48:39.804Z,4.36
2023-01-30T19:51:13.472Z,4.31
2023-01-30T19:53:44.262Z,4.43
2023-01-30T19:56:14.933Z,4.45
2023-01-30T19:58:44.154Z,4.47
2023-01-30T20:01:15.655Z,4.46
2023-01-30T20:03:44.571Z,4.52
2023-01-30T20:06:14.246Z,4.44
2023-01-30T20:08:45.039Z,4.49
2023-01-30T20:11:16.147Z,4.44
2023-01-30T20:13:45.957Z,4.43
2023-01-30T20:16:18.504Z,4.42
2023-01-30T20:18:48.151Z,4.42
2023-01-30T20:21:17.500Z,4.47
2023-01-30T20:23:47.303Z,4.52
2023-01-30T20:26:16.801Z,4.55
2023-01-30T20:28:45.527Z,4.52
2023-01-30T20:31:15.219Z,4.46
2023-01-30T20:33:44.054Z,4.48
2023-01-30T20:36:14.113Z,4.53
2023-01-30T20:38:45.296Z,4.59
2023-01-30T20:41:16.382Z,4.62
2023-01-30T20:43:46.485Z,4.55
2023-01-30T20:46:16.246Z,4.68
2023-01-30T20:48:45.403Z,4.68
2023-01-30T20:51:15.141Z,4.59
2023-01-30T20:53:48.941Z,4.59
2023-01-30T20:56:18.262Z,4.58
2023-01-30T20:58:46.714Z,4.52
2023-01-30T21:01:18.259Z,4.59
2023-01-30T21:03:50.234Z,4.47
2023-01-30T21:06:42.976Z,4.51
2023-01-30T21:09:07.724Z,4.42
2023-01-30T21:11:37.023Z,4.36
2023-01-30T21:14:05.318Z,4.45
2023-01-30T21:16:35.171Z,4.38
2023-01-30T21:19:06.423Z,4.46
2023-01-30T21:21:37.096Z,4.38
2023-01-30T21:24:07.581Z,4.38
2023-01-30T21:26:39.640Z,4.31
2023-01-30T21:29:08.544Z,4.33
2023-01-30T21:31:37.924Z,4.34
2023-01-30T21:34:07.724Z,4.29
2023-01-30T21:36:35.871Z,4.30
2023-01-30T21:39:21.275Z,4.30
2023-01-30T21:42:08.490Z,4.25
2023-01-30T21:44:38.288Z,4.31
2023-01-30T21:47:07.248Z,4.29
2023-01-30T21:49:36.768Z,4.38
2023-01-30T21:52:05.287Z,4.52
2023-01-30T21:54:33.380Z,4.46
2023-01-30T21:57:02.411Z,4.45
2023-01-30T21:59:31.589Z,4.28
2023-01-30T22:01:59.324Z,4.11
2023-01-30T22:04:27.028Z,4.07
2023-01-30T22:06:54.902Z,4.17
2023-01-30T22:09:22.645Z,4.19
2023-01-30T22:11:51.197Z,4.18
2023-01-30T22:14:20.264Z,4.30
2023-01-30T22:16:48.901Z,4.27
2023-01-30T22:19:17.180Z,4.25
2023-01-30T22:21:44.840Z,4.25
2023-01-30T22:24:13.322Z,4.20
2023-01-30T22:26:41.128Z,4.22
2023-01-30T22:29:08.932Z,4.29
2023-01-30T22:31:40.551Z,4.22
2023-01-30T22:34:09.051Z,4.24
2023-01-30T22:36:37.521Z,4.16
2023-01-30T22:39:06.659Z,4.16
2023-01-30T22:41:36.346Z,4.15
2023-01-30T22:44:06.610Z,4.15
2023-01-30T22:46:37.377Z,4.17
2023-01-30T22:49:08.259Z,4.21
2023-01-30T22:51:38.481Z,4.14
2023-01-30T22:54:08.012Z,4.10
2023-01-30T22:56:38.355Z,4.05
2023-01-30T22:59:06.975Z,4.03
2023-01-30T23:01:37.089Z,3.92
2023-01-30T23:04:08.109Z,3.87
2023-01-30T23:06:36.901Z,3.83
2023-01-30T23:09:07.322Z,3.71
2023-01-30T23:11:38.243Z,3.66
2023-01-30T23:14:09.021Z,3.69
2023-01-30T23:16:39.009Z,3.64
2023-01-30T23:19:08.995Z,3.60
2023-01-30T23:21:38.132Z,3.64
2023-01-30T23:24:08.376Z,3.50
2023-01-30T23:26:39.216Z,3.45
2023-01-30T23:29:13.141Z,3.52
2023-01-30T23:31:42.080Z,3.63
2023-01-30T23:34:13.667Z,3.53
2023-01-30T23:36:41.406Z,3.56
2023-01-30T23:39:10.040Z,3.61
2023-01-30T23:41:37.797Z,3.62
2023-01-30T23:44:05.676Z,3.67
2023-01-30T23:46:35.320Z,3.85
2023-01-30T23:49:05.958Z,3.88
2023-01-30T23:51:37.543Z,3.84
2023-01-30T23:54:06.052Z,3.94
2023-01-30T23:56:36.372Z,3.89
2023-01-30T23:59:05.631Z,3.88
